Terminal Aerodrome Forecast
Issued by NWS

Home | Current Version | Previous Version | Text Only | Print | Product List | Glossary On
Versions: 1 2 3 4 5 6 7 8 9 10 11 12 13 14 15 16 17 18 19 20 21 22 23 24 25 26 27 28 29 30 31 32
000
FTUS46 KPDT 012300
TAFALW
TAF
KALW 012333Z 0200/0224 20004KT 3SM -RA BR SCT025 OVC040
     FM020500 19008KT 6SM BR SCT010 OVC020
     FM020900 18006KT 5SM BR OVC012
     FM021400 16005KT P6SM SCT015 BKN035
     FM021900 17008KT 6SM -SHRA BR SCT015 BKN025=

USA.gov is the U.S. government's official web portal to all federal, state and local government web resources and services.